Time;durP1;ratioP1;P1;durP2;ratioP2;P2;SDS_P1;SDS_P2;PMS_P1;PMS_P2;Temp;Humidity;BMP_temperature;BMP_pressure;BME280_temperature;BME280_humidity;BME280_pressure;Samples;Min_cycle;Max_cycle;Signal;HPM_P1;HPM_P2
2023/06/06 00:00:21;;;;;;;5.03;2.55;;;14.50;67.70;;;;;;4920912;29;20053;-81
2023/06/06 00:02:49;;;;;;;4.63;2.10;;;14.50;67.90;;;;;;4923305;29;20527;-82
2023/06/06 00:05:17;;;;;;;4.90;2.42;;;14.40;67.90;;;;;;4917353;29;20078;-82
2023/06/06 00:07:45;;;;;;;5.13;2.40;;;14.40;68.20;;;;;;4916029;29;20043;-82
2023/06/06 00:10:15;;;;;;;4.03;2.22;;;14.30;68.30;;;;;;4934030;29;20043;-82
2023/06/06 00:12:46;;;;;;;4.85;2.15;;;14.20;68.70;;;;;;4931703;29;20051;-82
2023/06/06 00:15:15;;;;;;;4.90;2.15;;;14.20;68.70;;;;;;4913315;29;20131;-82
2023/06/06 00:17:44;;;;;;;3.42;1.67;;;14.20;69.00;;;;;;4898334;29;20051;-84
2023/06/06 00:20:13;;;;;;;4.60;2.28;;;14.10;69.00;;;;;;4898717;29;20055;-82
2023/06/06 00:22:41;;;;;;;4.45;2.22;;;14.00;69.10;;;;;;4924483;29;20050;-82
2023/06/06 00:25:08;;;;;;;5.43;2.60;;;14.00;69.40;;;;;;4905501;29;20110;-82
2023/06/06 00:27:36;;;;;;;4.80;2.60;;;13.90;69.40;;;;;;4920971;29;20052;-81
2023/06/06 00:30:05;;;;;;;3.72;2.13;;;13.90;69.40;;;;;;4892234;29;20094;-81
2023/06/06 00:32:32;;;;;;;6.55;2.15;;;13.90;69.60;;;;;;4920988;29;20051;-81
2023/06/06 00:34:59;;;;;;;5.95;2.67;;;13.80;69.70;;;;;;4930218;29;20047;-81
2023/06/06 00:37:26;;;;;;;6.03;2.75;;;13.80;69.90;;;;;;4908795;29;20146;-81
2023/06/06 00:39:53;;;;;;;5.43;2.53;;;13.80;70.00;;;;;;4905548;29;20095;-81
2023/06/06 00:42:20;;;;;;;4.95;2.30;;;13.70;70.00;;;;;;4894715;29;20559;-81
2023/06/06 00:49:02;;;;;;;6.80;2.33;;;13.70;70.10;;;;;;5394381;23;20057;-81
2023/06/06 00:52:03;;;;;;;5.00;1.80;;;13.60;70.30;;;;;;5576392;23;20355;31
2023/06/06 00:54:33;;;;;;;4.32;2.10;;;13.60;70.30;;;;;;4968098;23;20082;-81
2023/06/06 00:57:02;;;;;;;5.03;2.30;;;13.60;70.30;;;;;;4955718;29;20047;-81
2023/06/06 00:59:30;;;;;;;4.03;2.03;;;13.50;70.30;;;;;;4942076;28;20061;-81
2023/06/06 01:01:58;;;;;;;6.60;2.40;;;13.50;70.50;;;;;;4958456;28;20051;-80
2023/06/06 01:04:27;;;;;;;7.65;2.80;;;13.50;70.80;;;;;;4940790;28;20050;-81
2023/06/06 01:06:57;;;;;;;4.78;2.17;;;13.40;70.90;;;;;;4958714;28;20050;-81
2023/06/06 01:09:24;;;;;;;6.75;2.25;;;13.40;70.90;;;;;;4961608;28;20053;-81
2023/06/06 01:12:27;;;;;;;5.90;2.22;;;13.40;71.10;;;;;;4942858;28;20149;-81
2023/06/06 01:15:10;;;;;;;5.85;2.17;;;13.40;71.10;;;;;;4952588;28;20051;-82
2023/06/06 01:17:41;;;;;;;4.88;2.65;;;13.30;71.10;;;;;;4951729;28;20051;-82
2023/06/06 01:20:11;;;;;;;4.97;2.17;;;13.30;71.20;;;;;;4950965;28;20102;-81
2023/06/06 01:22:43;;;;;;;6.03;2.15;;;13.30;71.30;;;;;;4939244;28;20054;-81
2023/06/06 01:25:19;;;;;;;4.15;2.45;;;13.30;71.40;;;;;;4962472;28;20557;-81
2023/06/06 01:27:47;;;;;;;4.32;2.33;;;13.20;71.30;;;;;;4944701;28;20415;-81
2023/06/06 01:30:17;;;;;;;4.75;2.05;;;13.20;71.60;;;;;;4974043;28;20047;-82
2023/06/06 01:33:13;;;;;;;5.88;2.33;;;13.20;71.70;;;;;;4960671;28;20071;-82
2023/06/06 01:36:08;;;;;;;4.97;2.45;;;13.10;71.80;;;;;;4912326;29;20129;-81
2023/06/06 01:38:43;;;;;;;5.10;2.30;;;13.10;71.90;;;;;;4969979;28;20498;-81
2023/06/06 01:41:14;;;;;;;6.93;2.17;;;13.10;72.00;;;;;;4940858;28;20070;-81
2023/06/06 01:43:44;;;;;;;4.10;1.90;;;13.00;72.00;;;;;;4951049;28;20043;-81
2023/06/06 01:46:12;;;;;;;5.25;2.03;;;13.00;72.00;;;;;;4958055;28;20290;-82
2023/06/06 01:48:41;;;;;;;4.63;1.90;;;13.00;72.10;;;;;;4958191;28;20347;-81
2023/06/06 01:51:10;;;;;;;5.75;1.95;;;13.00;72.00;;;;;;4951243;29;20499;-81
2023/06/06 01:53:37;;;;;;;3.67;1.73;;;13.00;72.10;;;;;;4935227;29;20087;-82
2023/06/06 01:56:05;;;;;;;4.47;2.17;;;13.00;72.30;;;;;;4890837;29;20447;-82
2023/06/06 01:58:32;;;;;;;3.00;1.60;;;12.90;72.20;;;;;;4916161;29;20392;-82
2023/06/06 02:01:00;;;;;;;3.58;1.77;;;12.90;72.20;;;;;;4905491;29;20495;-82
2023/06/06 02:03:28;;;;;;;3.60;1.85;;;12.90;72.20;;;;;;4911441;29;20556;-82
2023/06/06 02:05:55;;;;;;;4.43;1.98;;;12.90;72.20;;;;;;4890799;29;20055;-82
2023/06/06 02:08:22;;;;;;;3.17;1.40;;;12.90;72.30;;;;;;4888387;29;20518;-82
2023/06/06 02:10:50;;;;;;;4.32;1.63;;;12.90;72.40;;;;;;4906074;29;20052;-82
2023/06/06 02:13:17;;;;;;;4.20;1.63;;;12.90;72.40;;;;;;4919056;29;20070;-83
2023/06/06 02:15:44;;;;;;;4.25;1.80;;;12.80;72.50;;;;;;4887098;29;20099;-82
2023/06/06 02:18:11;;;;;;;5.75;2.42;;;12.80;72.60;;;;;;4932431;29;20050;-82
2023/06/06 02:20:38;;;;;;;3.42;1.70;;;12.80;72.70;;;;;;4933126;29;20122;-83
2023/06/06 02:23:06;;;;;;;4.20;1.70;;;12.80;72.80;;;;;;4899523;29;20044;-83
2023/06/06 02:25:38;;;;;;;4.32;1.95;;;12.80;72.90;;;;;;4900468;29;20415;-83
2023/06/06 02:28:07;;;;;;;5.25;2.28;;;12.70;72.90;;;;;;4903472;29;20044;-83
2023/06/06 02:30:36;;;;;;;5.70;2.17;;;12.70;72.90;;;;;;4890202;29;20104;-83
2023/06/06 02:33:03;;;;;;;5.63;2.25;;;12.70;73.10;;;;;;4898574;29;20138;-83
2023/06/06 02:35:30;;;;;;;4.15;1.70;;;12.60;73.10;;;;;;4918062;29;20056;-83
2023/06/06 02:37:58;;;;;;;5.72;1.85;;;12.60;73.10;;;;;;4889900;29;20055;-83
2023/06/06 02:40:25;;;;;;;4.70;1.60;;;12.60;73.20;;;;;;4915867;29;20496;-80
2023/06/06 02:42:59;;;;;;;5.20;2.20;;;12.60;73.30;;;;;;4925754;29;20538;-82
2023/06/06 02:45:27;;;;;;;3.85;1.58;;;12.60;73.40;;;;;;4918519;29;20135;-82
2023/06/06 02:47:54;;;;;;;4.20;1.70;;;12.60;73.40;;;;;;4896214;29;20456;-82
2023/06/06 02:50:22;;;;;;;3.85;1.85;;;12.50;73.40;;;;;;4897641;29;20043;-82
2023/06/06 02:52:51;;;;;;;3.15;1.65;;;12.50;73.50;;;;;;4908461;29;20052;-82
2023/06/06 02:55:18;;;;;;;4.30;2.17;;;12.50;73.60;;;;;;4943812;29;20071;-82
2023/06/06 02:57:45;;;;;;;3.83;2.30;;;12.50;73.60;;;;;;4935833;29;20142;-82
2023/06/06 03:00:14;;;;;;;3.78;1.80;;;12.50;73.70;;;;;;4915730;29;20499;-83
2023/06/06 03:02:42;;;;;;;3.80;1.83;;;12.50;73.70;;;;;;4916651;29;20099;-81
2023/06/06 03:05:13;;;;;;;5.45;2.28;;;12.40;73.80;;;;;;4912938;29;20044;-82
2023/06/06 03:07:43;;;;;;;3.28;2.00;;;12.40;73.90;;;;;;4921267;29;20058;-82
2023/06/06 03:10:10;;;;;;;6.30;2.22;;;12.40;73.90;;;;;;4922222;29;20043;-82
2023/06/06 03:12:43;;;;;;;6.75;2.28;;;12.40;73.90;;;;;;4922372;29;20082;-82
2023/06/06 03:15:11;;;;;;;5.18;2.05;;;12.40;73.90;;;;;;4906466;29;20043;-82
2023/06/06 03:17:42;;;;;;;4.28;2.00;;;12.40;74.00;;;;;;4937418;29;20086;-81
2023/06/06 03:20:13;;;;;;;4.55;2.28;;;12.40;74.10;;;;;;4921937;29;20502;-81
2023/06/06 03:22:44;;;;;;;4.50;1.90;;;12.30;74.10;;;;;;4909678;29;20051;-80
2023/06/06 03:25:13;;;;;;;6.05;1.90;;;12.30;74.20;;;;;;4921795;29;20057;-81
2023/06/06 03:27:46;;;;;;;4.47;1.75;;;12.30;74.20;;;;;;4919053;29;20103;-82
2023/06/06 03:30:15;;;;;;;4.28;2.45;;;12.30;74.30;;;;;;4923850;29;20056;-82
2023/06/06 03:32:43;;;;;;;4.75;1.98;;;12.30;74.20;;;;;;4929353;29;20052;-82
2023/06/06 03:35:14;;;;;;;3.15;1.45;;;12.30;74.20;;;;;;4896022;29;20458;-82
2023/06/06 03:37:42;;;;;;;3.28;1.70;;;12.40;74.40;;;;;;4910732;29;20107;-82
2023/06/06 03:40:11;;;;;;;4.63;2.08;;;12.30;74.40;;;;;;4906348;29;20071;-82
2023/06/06 03:42:38;;;;;;;3.40;1.58;;;12.30;74.50;;;;;;4940331;29;20058;-83
2023/06/06 03:45:06;;;;;;;3.42;1.80;;;12.30;74.60;;;;;;4909219;29;20504;-83
2023/06/06 03:47:33;;;;;;;4.38;1.90;;;12.30;74.70;;;;;;4917425;29;20397;-83
2023/06/06 03:50:00;;;;;;;4.88;1.70;;;12.30;74.70;;;;;;4910531;29;20409;-83
2023/06/06 03:52:28;;;;;;;3.85;1.77;;;12.30;74.70;;;;;;4919410;29;20133;-82
2023/06/06 03:54:55;;;;;;;4.18;1.92;;;12.30;74.80;;;;;;4911862;29;20111;-83
2023/06/06 03:57:22;;;;;;;5.57;2.03;;;12.30;74.80;;;;;;4917493;29;20074;-82
2023/06/06 03:59:49;;;;;;;3.92;1.83;;;12.30;75.00;;;;;;4912461;29;20048;-82
2023/06/06 04:02:17;;;;;;;6.20;2.38;;;12.30;75.00;;;;;;4920832;29;20063;-82
2023/06/06 04:04:45;;;;;;;4.90;1.95;;;12.30;75.10;;;;;;4908642;29;20051;-82
2023/06/06 04:07:12;;;;;;;6.47;1.90;;;12.30;75.00;;;;;;4908752;29;20087;-82
2023/06/06 04:09:39;;;;;;;4.47;1.98;;;12.30;75.10;;;;;;4912751;29;20043;-82
2023/06/06 04:12:10;;;;;;;4.80;2.05;;;12.30;75.10;;;;;;4928661;29;20043;-82
2023/06/06 04:14:37;;;;;;;5.03;2.33;;;12.30;75.40;;;;;;4919549;29;20050;-82
2023/06/06 04:17:04;;;;;;;6.85;2.78;;;12.30;75.40;;;;;;4905584;29;20054;-82
2023/06/06 04:19:31;;;;;;;4.82;2.00;;;12.30;75.40;;;;;;4929806;29;20062;-82
2023/06/06 04:21:59;;;;;;;4.70;2.45;;;12.40;75.40;;;;;;4920954;29;20054;-82
2023/06/06 04:24:26;;;;;;;4.75;1.88;;;12.40;75.40;;;;;;4911637;29;20043;-82
2023/06/06 04:26:53;;;;;;;4.75;2.25;;;12.40;75.30;;;;;;4928405;29;20491;-81
2023/06/06 04:29:20;;;;;;;3.83;1.83;;;12.40;75.30;;;;;;4924868;29;20388;-82
2023/06/06 04:31:47;;;;;;;5.22;1.92;;;12.40;75.30;;;;;;4921311;29;20055;-82
2023/06/06 04:34:16;;;;;;;5.95;1.83;;;12.50;75.20;;;;;;4924925;29;20503;-82
2023/06/06 04:36:44;;;;;;;5.00;2.28;;;12.50;75.10;;;;;;4925147;29;20562;-82
2023/06/06 04:39:12;;;;;;;4.65;2.40;;;12.60;75.10;;;;;;4924756;29;20057;-82
2023/06/06 04:41:40;;;;;;;6.47;2.30;;;12.60;75.20;;;;;;4940129;29;20058;-82
2023/06/06 04:44:10;;;;;;;5.85;2.33;;;12.60;75.40;;;;;;4920077;29;20111;-83
2023/06/06 04:46:41;;;;;;;5.20;2.17;;;12.60;75.40;;;;;;4939301;29;20043;-82
2023/06/06 04:49:10;;;;;;;5.70;2.40;;;12.60;75.40;;;;;;4919676;29;20448;-82
2023/06/06 04:51:37;;;;;;;4.05;1.85;;;12.70;75.40;;;;;;4915606;29;20463;-82
2023/06/06 04:54:06;;;;;;;4.15;1.98;;;12.70;75.40;;;;;;4923318;29;20142;-81
2023/06/06 04:56:34;;;;;;;4.85;1.92;;;12.70;75.30;;;;;;4920666;29;20496;-82
2023/06/06 04:59:07;;;;;;;4.72;1.90;;;12.80;75.30;;;;;;4942007;29;20058;-82
2023/06/06 05:01:37;;;;;;;5.68;2.20;;;12.80;75.20;;;;;;4920742;29;20047;-82
2023/06/06 05:04:06;;;;;;;5.30;2.00;;;12.90;75.10;;;;;;4935888;29;20050;-82
2023/06/06 05:06:34;;;;;;;3.85;1.80;;;12.90;75.00;;;;;;4938505;29;20032;-83
2023/06/06 05:09:03;;;;;;;3.53;1.38;;;12.90;74.90;;;;;;4934234;29;20043;-83
2023/06/06 05:11:31;;;;;;;5.65;2.17;;;13.00;74.80;;;;;;4921138;29;20063;-82
2023/06/06 05:13:59;;;;;;;4.50;1.98;;;13.00;74.80;;;;;;4933119;29;20077;-81
2023/06/06 05:16:27;;;;;;;3.72;1.85;;;13.10;74.70;;;;;;4950315;29;20056;-82
2023/06/06 05:18:54;;;;;;;4.47;1.98;;;13.20;74.70;;;;;;4915888;29;20051;-81
2023/06/06 05:21:21;;;;;;;5.78;2.72;;;13.20;74.50;;;;;;4920157;29;20040;-82
2023/06/06 05:23:48;;;;;;;7.68;2.25;;;13.30;74.50;;;;;;4912733;29;20566;-82
2023/06/06 05:26:15;;;;;;;7.88;3.00;;;13.30;74.50;;;;;;4905177;29;20060;-81
2023/06/06 05:28:43;;;;;;;4.93;2.05;;;13.40;74.40;;;;;;4928528;29;20488;-81
2023/06/06 05:31:10;;;;;;;4.35;2.30;;;13.50;74.20;;;;;;4920401;29;20055;-82
2023/06/06 05:33:42;;;;;;;4.05;2.20;;;13.50;74.10;;;;;;4931372;29;20058;-81
2023/06/06 05:36:10;;;;;;;3.63;1.73;;;13.60;74.00;;;;;;4917254;29;20105;-81
2023/06/06 05:38:37;;;;;;;4.68;2.20;;;13.70;73.90;;;;;;4908562;29;20047;-80
2023/06/06 05:41:04;;;;;;;6.13;2.67;;;13.70;73.70;;;;;;4927366;29;20090;-81
2023/06/06 05:43:33;;;;;;;5.25;2.03;;;13.80;73.60;;;;;;4925755;29;20055;-82
2023/06/06 05:46:01;;;;;;;5.80;2.33;;;13.90;73.40;;;;;;4950704;29;20044;-82
2023/06/06 05:48:29;;;;;;;3.72;1.98;;;14.10;73.20;;;;;;4925691;29;20071;-82
2023/06/06 05:50:57;;;;;;;5.25;2.03;;;14.20;72.90;;;;;;4929329;29;20062;-82
2023/06/06 05:53:24;;;;;;;4.75;2.38;;;14.30;72.70;;;;;;4929391;29;20138;-81
2023/06/06 05:55:51;;;;;;;5.43;2.03;;;14.30;72.60;;;;;;4920905;29;20065;-82
2023/06/06 05:58:18;;;;;;;5.60;2.17;;;14.40;72.50;;;;;;4919848;29;20048;-81
2023/06/06 06:00:46;;;;;;;4.63;2.08;;;14.50;72.30;;;;;;4918677;29;20055;-82
2023/06/06 06:03:14;;;;;;;4.03;2.00;;;14.50;72.20;;;;;;4914826;29;20444;-82
2023/06/06 06:05:42;;;;;;;4.10;1.77;;;14.60;72.10;;;;;;4933098;29;20047;-81
2023/06/06 06:08:09;;;;;;;3.80;1.35;;;14.70;72.00;;;;;;4907310;29;20257;-82
2023/06/06 06:10:37;;;;;;;4.80;2.00;;;14.80;71.80;;;;;;4931929;29;20107;-83
2023/06/06 06:13:05;;;;;;;5.10;1.90;;;14.90;71.50;;;;;;4922795;29;20146;-81
2023/06/06 06:15:34;;;;;;;5.22;2.08;;;15.00;71.30;;;;;;4935668;29;20499;-81
2023/06/06 06:18:03;;;;;;;4.03;2.28;;;15.10;71.10;;;;;;4890708;29;20047;-81
2023/06/06 06:20:30;;;;;;;4.38;1.85;;;15.10;71.00;;;;;;4929396;29;20055;-82
2023/06/06 06:22:57;;;;;;;5.43;2.47;;;15.20;70.90;;;;;;4907518;29;20039;-83
2023/06/06 06:25:24;;;;;;;4.55;1.92;;;15.20;70.80;;;;;;4933352;29;20061;-80
2023/06/06 06:27:51;;;;;;;4.38;2.05;;;15.30;70.60;;;;;;4921099;29;20047;-83
2023/06/06 06:30:18;;;;;;;6.60;2.25;;;15.40;70.40;;;;;;4908061;29;20513;-84
2023/06/06 06:32:46;;;;;;;4.82;2.55;;;15.50;70.20;;;;;;4916543;29;20062;-84
2023/06/06 06:35:14;;;;;;;5.68;2.67;;;15.50;70.10;;;;;;4926641;29;20525;-84
2023/06/06 06:37:41;;;;;;;4.90;2.47;;;15.60;70.00;;;;;;4920245;29;20495;-85
2023/06/06 06:40:12;;;;;;;4.65;1.98;;;15.70;69.90;;;;;;4918368;29;20070;-84
2023/06/06 06:42:42;;;;;;;5.75;2.40;;;15.80;69.50;;;;;;4915497;29;20057;-84
2023/06/06 06:45:38;;;;;;;6.72;2.22;;;15.90;69.40;;;;;;4926389;29;20055;-84
2023/06/06 06:48:05;;;;;;;5.63;2.63;;;15.90;69.20;;;;;;4912124;29;20062;-84
2023/06/06 06:50:33;;;;;;;4.72;2.20;;;15.90;69.10;;;;;;4909430;29;20042;-81
2023/06/06 06:53:02;;;;;;;4.57;1.98;;;15.90;69.10;;;;;;4926715;29;20059;-82
2023/06/06 06:55:30;;;;;;;7.47;2.53;;;16.00;69.00;;;;;;4918696;29;20488;-81
2023/06/06 06:57:58;;;;;;;3.78;1.98;;;16.10;68.80;;;;;;4915446;29;20138;-83
2023/06/06 07:00:25;;;;;;;3.28;1.92;;;16.10;68.70;;;;;;4911924;29;20051;-83
2023/06/06 07:02:56;;;;;;;5.70;2.15;;;16.10;68.60;;;;;;4932582;29;20075;-81
2023/06/06 07:05:23;;;;;;;5.60;2.15;;;16.20;68.50;;;;;;4914720;29;20049;-83
2023/06/06 07:07:53;;;;;;;4.28;1.80;;;16.30;68.40;;;;;;4917096;29;20091;-80
2023/06/06 07:10:22;;;;;;;5.25;2.17;;;16.30;68.30;;;;;;4913735;29;20054;-82
2023/06/06 07:12:51;;;;;;;4.55;1.75;;;16.40;68.20;;;;;;4921932;29;20055;-83
2023/06/06 07:15:23;;;;;;;4.60;1.67;;;16.50;68.10;;;;;;4927622;29;20056;-83
2023/06/06 07:17:50;;;;;;;2.92;1.40;;;16.60;67.80;;;;;;4929286;29;20393;-82
2023/06/06 07:20:21;;;;;;;3.17;1.70;;;16.80;67.50;;;;;;4934872;29;20053;-83
2023/06/06 07:22:53;;;;;;;4.43;2.00;;;16.90;67.20;;;;;;4906193;29;20047;-82
2023/06/06 07:25:21;;;;;;;3.88;2.17;;;16.90;67.00;;;;;;4937600;29;20039;-82
2023/06/06 07:27:49;;;;;;;3.75;1.80;;;17.00;67.00;;;;;;4928840;29;20051;-82
2023/06/06 07:30:16;;;;;;;3.63;1.70;;;17.10;67.00;;;;;;4914769;29;20055;-81
2023/06/06 07:32:46;;;;;;;6.15;2.03;;;17.20;66.70;;;;;;4931001;29;20051;-82
2023/06/06 07:35:16;;;;;;;4.72;2.10;;;17.30;66.50;;;;;;4952754;29;20066;-81
2023/06/06 07:37:43;;;;;;;3.63;1.83;;;17.40;66.40;;;;;;4936930;29;20047;-81
2023/06/06 07:40:11;;;;;;;4.65;1.95;;;17.50;66.20;;;;;;4926148;29;20107;-81
2023/06/06 07:42:42;;;;;;;3.78;1.67;;;17.60;66.10;;;;;;4925543;29;20042;-81
2023/06/06 07:45:13;;;;;;;3.90;1.38;;;17.70;65.90;;;;;;4941724;29;20123;-81
2023/06/06 07:47:40;;;;;;;6.55;1.70;;;17.90;65.80;;;;;;4920243;29;20089;-83
2023/06/06 07:50:08;;;;;;;4.25;1.52;;;17.90;65.50;;;;;;4921357;29;20153;-82
2023/06/06 07:52:36;;;;;;;3.17;1.40;;;18.00;65.40;;;;;;4930778;29;20039;-82
2023/06/06 07:55:05;;;;;;;4.80;2.20;;;18.00;65.40;;;;;;4936358;29;20066;-82
2023/06/06 07:57:33;;;;;;;3.50;1.58;;;18.10;65.30;;;;;;4928584;29;20044;-82
2023/06/06 08:00:10;;;;;;;4.05;1.95;;;18.20;65.10;;;;;;4919488;29;20062;-82
2023/06/06 08:02:39;;;;;;;3.88;1.70;;;18.40;64.80;;;;;;4938292;29;20043;-82
2023/06/06 08:05:08;;;;;;;3.95;2.13;;;18.50;64.60;;;;;;4922016;29;20043;-82
2023/06/06 08:07:41;;;;;;;4.50;2.03;;;18.60;64.40;;;;;;4922313;29;20431;-82
2023/06/06 08:10:08;;;;;;;4.88;1.95;;;18.60;64.20;;;;;;4916172;29;20539;-83
2023/06/06 08:12:38;;;;;;;3.60;1.77;;;18.60;64.30;;;;;;4950728;29;20069;-83
2023/06/06 08:15:06;;;;;;;4.43;1.92;;;18.70;64.10;;;;;;4917440;29;20055;-83
2023/06/06 08:17:33;;;;;;;3.58;2.17;;;18.70;63.90;;;;;;4909085;29;20513;-83
2023/06/06 08:20:00;;;;;;;2.85;1.52;;;18.80;63.80;;;;;;4927609;29;20119;-83
2023/06/06 08:22:31;;;;;;;3.13;1.63;;;19.00;63.70;;;;;;4931641;29;20134;-83
2023/06/06 08:25:05;;;;;;;4.20;1.77;;;19.10;63.50;;;;;;4921995;29;20071;-84
2023/06/06 08:27:32;;;;;;;3.10;1.50;;;19.20;63.30;;;;;;4929862;29;20047;-82
2023/06/06 08:30:03;;;;;;;3.97;1.58;;;19.30;63.10;;;;;;4906095;29;20091;-82
2023/06/06 08:32:32;;;;;;;4.68;1.35;;;19.40;63.00;;;;;;4931184;29;20050;-82
2023/06/06 08:35:03;;;;;;;2.40;1.10;;;19.50;62.90;;;;;;4919877;29;20071;-83
2023/06/06 08:37:30;;;;;;;3.28;1.77;;;19.60;62.50;;;;;;4923965;29;20059;-84
2023/06/06 08:39:57;;;;;;;5.20;1.50;;;19.70;62.50;;;;;;4954025;29;20051;-83
2023/06/06 08:42:26;;;;;;;4.68;1.60;;;19.80;62.20;;;;;;4922819;29;20106;-83
2023/06/06 08:44:57;;;;;;;3.58;1.60;;;19.70;62.30;;;;;;4913992;29;20043;-83
2023/06/06 08:47:26;;;;;;;3.67;1.77;;;19.80;62.20;;;;;;4921890;29;20039;-83
2023/06/06 08:49:54;;;;;;;3.83;1.60;;;19.90;61.90;;;;;;4918281;29;20058;-83
2023/06/06 08:52:21;;;;;;;3.78;1.30;;;20.10;61.70;;;;;;4918631;29;20066;-82
2023/06/06 08:54:50;;;;;;;4.72;1.30;;;20.20;61.60;;;;;;4948678;29;20097;-83
2023/06/06 08:57:19;;;;;;;3.80;1.55;;;20.30;61.40;;;;;;4917853;29;20051;-83
2023/06/06 08:59:47;;;;;;;4.40;1.67;;;20.40;61.20;;;;;;4918557;29;20075;-84
2023/06/06 09:02:15;;;;;;;2.78;1.52;;;20.40;61.10;;;;;;4932940;29;20044;-85
2023/06/06 09:04:43;;;;;;;2.80;1.45;;;20.50;60.90;;;;;;4920762;29;20110;-82
2023/06/06 09:07:13;;;;;;;2.28;1.10;;;20.60;60.80;;;;;;4924141;29;20399;-83
2023/06/06 09:09:42;;;;;;;3.22;1.17;;;20.80;60.60;;;;;;4923849;29;20392;-83
2023/06/06 09:12:10;;;;;;;2.65;1.20;;;20.90;60.30;;;;;;4921510;29;20075;-90
2023/06/06 09:14:37;;;;;;;4.57;1.48;;;21.00;60.10;;;;;;4913613;29;20162;-84
2023/06/06 09:17:05;;;;;;;3.63;1.10;;;21.10;59.90;;;;;;4946926;29;20055;-87
2023/06/06 09:19:32;;;;;;;4.70;1.45;;;21.20;59.70;;;;;;4934769;29;20380;-87
2023/06/06 09:22:00;;;;;;;2.60;1.20;;;21.20;59.60;;;;;;4899758;29;20079;-86
2023/06/06 09:24:30;;;;;;;2.53;1.33;;;21.30;59.50;;;;;;4930005;29;20039;-86
2023/06/06 09:26:58;;;;;;;3.13;1.35;;;21.40;59.40;;;;;;4934223;29;20126;-85
2023/06/06 09:29:25;;;;;;;2.50;1.10;;;21.50;59.20;;;;;;4915354;29;20036;-86
2023/06/06 09:31:52;;;;;;;3.58;1.33;;;21.60;59.10;;;;;;4930788;29;20044;-85
2023/06/06 09:34:25;;;;;;;3.28;1.40;;;21.70;58.80;;;;;;4939125;29;20209;-86
2023/06/06 09:36:53;;;;;;;2.60;1.35;;;21.80;58.60;;;;;;4908410;29;20059;-85
2023/06/06 09:39:20;;;;;;;3.05;1.45;;;21.90;58.60;;;;;;4946870;29;20139;-84
2023/06/06 09:41:48;;;;;;;2.95;1.05;;;21.90;58.40;;;;;;4917997;29;20042;-83
2023/06/06 09:44:20;;;;;;;2.90;1.30;;;22.10;58.30;;;;;;4943425;29;20593;-79
2023/06/06 09:46:58;;;;;;;;;;;22.20;58.10;;;;;;4943336;29;20036;-80
2023/06/06 09:49:25;;;;;;;3.33;1.30;;;22.10;58.10;;;;;;4924258;29;19922;-80
2023/06/06 09:51:53;;;;;;;4.03;1.70;;;22.10;58.00;;;;;;4936620;29;20062;-80
2023/06/06 09:54:23;;;;;;;2.10;1.00;;;22.20;58.10;;;;;;4933210;29;20063;-81
2023/06/06 09:56:51;;;;;;;3.22;1.20;;;22.30;57.90;;;;;;4931046;29;20443;-81
2023/06/06 09:59:23;;;;;;;3.08;1.27;;;22.50;57.70;;;;;;4910965;29;20073;-82
2023/06/06 10:01:58;;;;;;;3.05;1.40;;;22.50;57.40;;;;;;4928420;29;20040;-82
2023/06/06 10:04:26;;;;;;;2.67;1.42;;;22.60;57.30;;;;;;4933038;29;20472;-83
2023/06/06 10:06:57;;;;;;;3.65;1.42;;;22.50;57.30;;;;;;4935109;29;20055;-83
2023/06/06 10:09:25;;;;;;;3.35;1.30;;;22.50;57.40;;;;;;4923303;29;20133;-82
2023/06/06 10:11:53;;;;;;;2.00;1.10;;;22.50;57.30;;;;;;4947988;29;20061;-82
2023/06/06 10:14:21;;;;;;;3.05;1.33;;;22.60;57.10;;;;;;4947794;29;20131;-82
2023/06/06 10:16:49;;;;;;;2.45;1.20;;;22.60;56.90;;;;;;4945656;29;20059;-80
2023/06/06 10:19:20;;;;;;;4.10;1.20;;;22.70;56.90;;;;;;4917387;29;20047;-81
2023/06/06 10:21:48;;;;;;;2.85;1.20;;;22.80;56.70;;;;;;4929144;29;20053;-80
2023/06/06 10:24:16;;;;;;;3.78;1.30;;;22.80;56.70;;;;;;4936651;29;20445;-81
2023/06/06 10:27:00;;;;;;;3.38;1.40;;;22.80;56.60;;;;;;4935362;29;20487;-83
2023/06/06 10:29:56;;;;;;;2.90;1.10;;;22.90;56.50;;;;;;4928018;29;20054;-82
2023/06/06 10:32:43;;;;;;;4.65;1.60;;;22.90;56.50;;;;;;4938009;29;20051;-82
2023/06/06 10:35:12;;;;;;;2.70;1.25;;;23.00;56.40;;;;;;4938438;29;20126;-83
2023/06/06 10:37:39;;;;;;;2.95;1.50;;;23.10;56.20;;;;;;4917257;29;20558;-81
2023/06/06 10:40:09;;;;;;;3.38;1.83;;;23.10;56.00;;;;;;4908693;29;20048;-81
2023/06/06 10:42:40;;;;;;;3.97;1.30;;;23.10;55.60;;;;;;4891512;29;20071;-82
2023/06/06 10:45:08;;;;;;;3.03;1.30;;;23.30;55.80;;;;;;4919171;29;20043;-82
2023/06/06 10:47:44;;;;;;;4.38;1.20;;;23.40;55.60;;;;;;4931924;29;20043;-81
2023/06/06 10:50:16;;;;;;;2.53;1.02;;;23.50;55.40;;;;;;4921965;29;20043;-82
2023/06/06 10:52:56;;;;;;;2.00;0.95;;;23.70;55.20;;;;;;4921996;29;20467;-83
2023/06/06 10:55:23;;;;;;;3.33;1.20;;;23.80;54.90;;;;;;4906704;29;20055;-82
2023/06/06 10:58:11;;;;;;;3.25;1.40;;;23.80;54.90;;;;;;4937699;29;20078;-82
2023/06/06 11:00:46;;;;;;;4.45;1.00;;;23.90;54.90;;;;;;4933038;29;20047;-83
2023/06/06 11:03:16;;;;;;;3.05;1.50;;;24.00;54.70;;;;;;4914373;29;20036;-83
2023/06/06 11:06:06;;;;;;;3.20;1.17;;;24.00;54.50;;;;;;4930368;29;20048;-86
2023/06/06 11:08:40;;;;;;;2.47;1.00;;;24.10;54.50;;;;;;4921588;29;20169;-87
2023/06/06 11:11:33;;;;;;;3.53;1.30;;;24.20;54.40;;;;;;4935330;29;20054;-88
2023/06/06 11:14:06;;;;;;;3.28;1.33;;;24.30;54.10;;;;;;4906463;29;20443;-87
2023/06/06 11:16:39;;;;;;;3.33;1.30;;;24.40;54.00;;;;;;4935362;29;20094;-87
2023/06/06 11:19:14;;;;;;;3.35;1.40;;;24.40;53.80;;;;;;4921726;29;20051;-87
2023/06/06 11:21:46;;;;;;;2.70;1.20;;;24.50;53.80;;;;;;4910227;29;20058;-89
2023/06/06 11:24:15;;;;;;;3.38;0.82;;;24.50;53.70;;;;;;4938684;29;20043;-88
2023/06/06 11:26:43;;;;;;;3.70;0.75;;;24.60;53.60;;;;;;4924880;29;20043;-86
2023/06/06 11:29:11;;;;;;;3.53;1.23;;;24.70;53.40;;;;;;4937734;29;20078;-86
2023/06/06 11:31:39;;;;;;;2.38;1.10;;;24.80;53.10;;;;;;4908476;29;20045;-86
2023/06/06 11:34:11;;;;;;;2.78;1.17;;;24.80;53.00;;;;;;4921795;29;20043;-83
2023/06/06 11:36:44;;;;;;;1.80;1.00;;;24.90;52.90;;;;;;4931504;29;20070;-87
2023/06/06 11:39:12;;;;;;;2.55;1.20;;;25.00;52.80;;;;;;4912888;29;20054;-87
2023/06/06 11:41:48;;;;;;;2.92;1.10;;;25.10;52.50;;;;;;4924919;29;20058;-87
2023/06/06 11:44:17;;;;;;;3.33;1.30;;;25.20;52.20;;;;;;4905974;29;20489;-85
2023/06/06 11:46:49;;;;;;;1.50;0.85;;;25.30;52.10;;;;;;4931518;29;20048;-84
2023/06/06 11:49:17;;;;;;;3.65;1.25;;;25.50;51.80;;;;;;4936451;29;20051;-86
2023/06/06 11:51:57;;;;;;;2.88;1.08;;;25.60;51.50;;;;;;4919461;29;20131;-85
2023/06/06 11:54:28;;;;;;;3.08;1.10;;;25.70;51.50;;;;;;4924092;29;20451;-83
2023/06/06 11:57:02;;;;;;;5.18;1.77;;;25.90;51.30;;;;;;4937014;29;20048;-83
2023/06/06 11:59:29;;;;;;;3.60;1.30;;;26.20;50.80;;;;;;4936825;29;20053;-85
2023/06/06 12:01:58;;;;;;;1.85;1.00;;;26.30;50.40;;;;;;4910132;29;20051;-84
2023/06/06 12:04:26;;;;;;;2.60;1.25;;;26.60;50.10;;;;;;4908522;29;20040;-85
2023/06/06 12:07:03;;;;;;;3.47;1.65;;;26.90;49.70;;;;;;4909398;29;20371;-84
2023/06/06 12:09:32;;;;;;;3.63;1.45;;;27.10;49.30;;;;;;4935354;29;20118;-87
2023/06/06 12:12:01;;;;;;;2.67;1.13;;;27.30;49.00;;;;;;4935938;29;20073;-84
2023/06/06 12:14:29;;;;;;;1.95;1.10;;;27.80;48.70;;;;;;4939416;29;20051;-86
2023/06/06 12:17:12;;;;;;;3.38;0.80;;;28.20;48.30;;;;;;4928193;29;20074;-87
2023/06/06 12:19:42;;;;;;;2.47;0.88;;;28.70;47.80;;;;;;4932181;29;20411;-81
2023/06/06 12:22:09;;;;;;;2.58;0.95;;;28.90;47.50;;;;;;4896488;29;20063;-88
2023/06/06 12:24:36;;;;;;;2.33;0.85;;;29.10;47.20;;;;;;4923422;29;20086;-82
2023/06/06 12:27:04;;;;;;;3.13;1.08;;;29.40;47.40;;;;;;4914557;29;20058;-82
2023/06/06 12:29:35;;;;;;;3.97;1.30;;;29.60;46.60;;;;;;4936377;29;20054;-83
2023/06/06 12:32:25;;;;;;;3.17;1.10;;;29.80;46.30;;;;;;4909556;29;20079;-82
2023/06/06 12:35:02;;;;;;;2.60;1.10;;;30.00;46.10;;;;;;4919240;29;20052;-80
2023/06/06 12:37:42;;;;;;;2.85;1.10;;;30.10;45.80;;;;;;4927914;29;20047;-83
2023/06/06 12:40:12;;;;;;;2.67;1.15;;;30.30;45.20;;;;;;4921113;29;20511;-82
2023/06/06 12:42:40;;;;;;;2.63;1.27;;;30.30;45.20;;;;;;4945963;29;20051;-83
2023/06/06 12:45:08;;;;;;;2.70;1.02;;;30.30;45.00;;;;;;4931444;29;20091;-82
2023/06/06 12:47:35;;;;;;;2.72;0.85;;;30.70;44.90;;;;;;4923674;29;20106;-82
2023/06/06 12:50:02;;;;;;;2.92;1.13;;;31.10;44.50;;;;;;4940017;29;20124;-82
2023/06/06 12:52:30;;;;;;;2.35;1.00;;;31.30;44.70;;;;;;4904943;29;20060;-82
2023/06/06 12:54:57;;;;;;;1.90;0.80;;;31.30;44.40;;;;;;4914708;29;20055;-81
2023/06/06 12:57:24;;;;;;;1.65;0.90;;;31.40;43.80;;;;;;4930933;29;20056;-81
2023/06/06 12:59:51;;;;;;;2.58;0.73;;;31.60;43.50;;;;;;4939692;29;20062;-82
2023/06/06 13:02:18;;;;;;;2.42;1.10;;;31.80;43.10;;;;;;4910819;29;20075;-82
2023/06/06 13:04:46;;;;;;;2.25;1.00;;;32.00;42.60;;;;;;4920927;29;20337;-81